Time;durP1;ratioP1;P1;durP2;ratioP2;P2;SDS_P1;SDS_P2;PMS_P1;PMS_P2;Temp;Humidity;BMP_temperature;BMP_pressure;BME280_temperature;BME280_humidity;BME280_pressure;Samples;Min_cycle;Max_cycle;Signal;HPM_P1;HPM_P2
2022/06/28 00:00:01;;;;;;;360.35;267.20;;;;;;;23.42;71.26;99633.94;413524;23;994;-76
2022/06/28 00:00:11;;;;;;;360.67;266.40;;;;;;;23.45;71.04;99638.16;411952;24;1413;-76
2022/06/28 00:00:22;;;;;;;361.92;267.70;;;;;;;23.44;70.97;99639.97;411710;24;1425;-76
2022/06/28 00:00:32;;;;;;;362.10;266.73;;;;;;;23.46;70.75;99645.19;407774;24;1060;-76
2022/06/28 00:00:43;;;;;;;361.90;266.40;;;;;;;23.46;70.78;99645.19;410075;24;819;-76
2022/06/28 00:00:53;;;;;;;362.43;267.87;;;;;;;23.43;70.46;99638.28;409618;24;1180;-76
2022/06/28 00:01:04;;;;;;;360.98;266.27;;;;;;;23.44;70.75;99645.31;411834;24;966;-76
2022/06/28 00:01:14;;;;;;;362.93;268.87;;;;;;;23.44;70.37;99645.31;409663;24;802;-76
2022/06/28 00:01:25;;;;;;;360.65;263.90;;;;;;;23.44;70.29;99639.13;410017;24;836;-76
2022/06/28 00:01:35;;;;;;;362.53;267.00;;;;;;;23.45;70.42;99638.16;409876;24;1500;-76
2022/06/28 00:01:46;;;;;;;359.83;265.83;;;;;;;23.45;70.29;99639.00;409676;24;818;-76
2022/06/28 00:01:57;;;;;;;361.83;272.67;;;;;;;23.45;70.40;99639.00;409476;24;1344;-76
2022/06/28 00:02:07;;;;;;;362.33;274.75;;;;;;;23.47;70.47;99642.34;407788;24;1290;-76
2022/06/28 00:02:18;;;;;;;367.53;279.43;;;;;;;23.46;70.47;99642.50;408140;24;928;-76
2022/06/28 00:02:28;;;;;;;368.20;275.67;;;;;;;23.47;70.39;99642.34;413720;23;881;-76
2022/06/28 00:02:39;;;;;;;369.48;274.08;;;;;;;23.47;70.14;99645.03;411941;24;794;-76
2022/06/28 00:02:49;;;;;;;367.70;270.97;;;;;;;23.46;70.51;99646.00;413720;23;793;-76
2022/06/28 00:02:59;;;;;;;366.58;270.80;;;;;;;23.47;70.64;99641.50;413349;23;1223;-76
2022/06/28 00:03:10;;;;;;;367.67;271.27;;;;;;;23.45;70.66;99644.34;415631;23;926;-76
2022/06/28 00:03:20;;;;;;;367.27;273.50;;;;;;;23.45;70.65;99646.16;413670;23;1378;-76
2022/06/28 00:03:31;;;;;;;365.77;273.70;;;;;;;23.45;70.87;99641.66;411965;24;930;-76
2022/06/28 00:03:42;;;;;;;364.53;274.10;;;;;;;23.46;70.46;99640.69;411904;24;885;-76
2022/06/28 00:03:52;;;;;;;361.90;270.25;;;;;;;23.44;70.16;99637.31;412835;23;1469;-76
2022/06/28 00:04:03;;;;;;;360.57;269.40;;;;;;;23.44;70.85;99639.97;415491;23;1274;-76
2022/06/28 00:04:13;;;;;;;362.10;266.77;;;;;;;23.43;70.49;99635.63;411650;24;1234;-76
2022/06/28 00:04:24;;;;;;;364.53;268.53;;;;;;;23.44;70.07;99641.81;413775;23;1272;-76
2022/06/28 00:04:34;;;;;;;365.52;269.58;;;;;;;23.44;71.05;99639.97;412153;24;1020;-76
2022/06/28 00:04:44;;;;;;;361.93;269.20;;;;;;;23.45;70.50;99644.34;409809;24;1191;-76
2022/06/28 00:04:55;;;;;;;359.97;267.53;;;;;;;23.41;70.54;99640.25;413675;23;1343;-76
2022/06/28 00:05:06;;;;;;;356.88;263.17;;;;;;;23.46;70.66;99645.19;411560;24;1287;-76
2022/06/28 00:05:16;;;;;;;358.30;265.98;;;;;;;23.44;70.29;99642.66;413638;23;849;-76
2022/06/28 00:05:27;;;;;;;360.55;267.23;;;;;;;23.46;70.40;99642.50;411770;24;885;-76
2022/06/28 00:05:37;;;;;;;362.23;273.13;;;;;;;23.46;70.51;99650.53;411827;24;849;-76
2022/06/28 00:05:48;;;;;;;364.57;273.23;;;;;;;23.46;70.48;99643.34;410856;24;854;-76
2022/06/28 00:05:58;;;;;;;365.58;276.60;;;;;;;23.44;70.79;99642.66;413390;23;1301;-76
2022/06/28 00:06:09;;;;;;;365.47;272.50;;;;;;;23.46;70.86;99647.84;413681;23;1178;-76
2022/06/28 00:06:19;;;;;;;365.48;271.75;;;;;;;23.44;70.81;99648.00;411833;24;837;-76
2022/06/28 00:06:29;;;;;;;364.80;265.13;;;;;;;23.45;70.76;99643.50;411740;24;1028;-76
2022/06/28 00:06:40;;;;;;;364.77;265.35;;;;;;;23.46;70.41;99646.00;409839;24;845;-76
2022/06/28 00:06:50;;;;;;;363.17;264.10;;;;;;;23.45;70.75;99648.84;411609;24;1271;-76
2022/06/28 00:07:01;;;;;;;363.20;266.83;;;;;;;23.42;70.36;99647.28;417824;23;1279;-76
2022/06/28 00:07:11;;;;;;;362.73;267.77;;;;;;;23.43;70.77;99648.13;416106;23;774;-76
2022/06/28 00:07:21;;;;;;;363.63;270.20;;;;;;;23.43;70.52;99648.13;411751;24;1228;-76
2022/06/28 00:07:32;;;;;;;363.98;273.55;;;;;;;23.40;69.85;99648.41;411824;24;1081;-76
2022/06/28 00:07:43;;;;;;;363.60;273.47;;;;;;;23.39;70.42;99650.28;411718;24;856;-76
2022/06/28 00:07:53;;;;;;;361.27;268.20;;;;;;;23.40;70.78;99643.06;411070;24;834;-76
2022/06/28 00:08:04;;;;;;;361.47;266.27;;;;;;;23.40;70.92;99651.09;411770;24;964;-76
2022/06/28 00:08:14;;;;;;;363.17;267.90;;;;;;;23.41;71.30;99645.59;409779;24;771;-76
2022/06/28 00:08:24;;;;;;;364.63;272.60;;;;;;;23.39;71.20;99642.25;411807;24;775;-76
2022/06/28 00:08:35;;;;;;;364.13;270.67;;;;;;;23.40;71.03;99649.25;413574;23;1338;-76
2022/06/28 00:08:45;;;;;;;360.97;265.47;;;;;;;23.37;71.04;99638.06;411521;24;1187;-75
2022/06/28 00:08:56;;;;;;;361.88;263.13;;;;;;;23.39;71.00;99647.59;409943;24;912;-75
2022/06/28 00:09:06;;;;;;;365.27;268.10;;;;;;;23.37;71.28;99652.25;407836;24;1258;-75
2022/06/28 00:09:17;;;;;;;364.27;269.88;;;;;;;23.36;71.23;99645.22;407948;24;874;-76
2022/06/28 00:09:27;;;;;;;364.50;270.80;;;;;;;23.37;71.13;99649.56;411818;24;1413;-76
2022/06/28 00:09:37;;;;;;;365.35;271.27;;;;;;;23.36;71.25;99645.22;411791;24;838;-76
2022/06/28 00:09:48;;;;;;;368.57;270.97;;;;;;;23.35;71.48;99648.88;413472;23;1238;-76
2022/06/28 00:09:58;;;;;;;367.52;266.25;;;;;;;23.36;71.37;99642.56;413030;23;1291;-77
2022/06/28 00:10:10;;;;;;;366.60;265.90;;;;;;;23.37;71.40;99644.22;411793;24;842;-75
2022/06/28 00:10:21;;;;;;;369.77;270.27;;;;;;;23.39;71.70;99650.28;411579;24;838;-75
2022/06/28 00:10:31;;;;;;;371.27;274.33;;;;;;;23.39;71.67;99650.28;411673;24;1311;-75
2022/06/28 00:10:42;;;;;;;367.97;272.50;;;;;;;23.38;71.59;99647.75;413812;23;1230;-75
2022/06/28 00:10:52;;;;;;;366.27;272.23;;;;;;;23.40;71.66;99651.09;413696;23;881;-76
2022/06/28 00:11:02;;;;;;;367.80;274.23;;;;;;;23.40;72.07;99646.59;413620;23;1065;-75
2022/06/28 00:11:13;;;;;;;368.90;274.30;;;;;;;23.39;72.05;99641.41;413888;23;877;-76
2022/06/28 00:11:23;;;;;;;369.13;274.67;;;;;;;23.39;72.41;99654.78;413680;23;857;-76
2022/06/28 00:11:34;;;;;;;365.70;270.17;;;;;;;23.39;72.36;99646.75;415731;23;858;-76
2022/06/28 00:11:44;;;;;;;363.23;268.77;;;;;;;23.39;72.73;99650.28;413514;23;1225;-76
2022/06/28 00:11:54;;;;;;;359.53;264.57;;;;;;;23.37;72.67;99646.91;412737;23;1097;-75
2022/06/28 00:12:05;;;;;;;359.07;262.97;;;;;;;23.38;72.84;99653.09;409665;24;1940;-75
2022/06/28 00:12:15;;;;;;;362.20;263.30;;;;;;;23.34;72.63;99647.19;411875;24;983;-75
2022/06/28 00:12:26;;;;;;;363.60;267.23;;;;;;;23.34;72.13;99646.34;413942;23;851;-75
2022/06/28 00:12:37;;;;;;;365.30;273.73;;;;;;;23.34;72.85;99641.84;411668;24;1174;-75
2022/06/28 00:12:47;;;;;;;363.48;275.00;;;;;;;23.34;72.06;99644.53;413125;23;846;-75
2022/06/28 00:12:59;;;;;;;363.80;276.30;;;;;;;23.33;72.44;99645.50;411371;23;1291;-76
2022/06/28 00:13:10;;;;;;;364.95;276.08;;;;;;;23.34;72.28;99651.69;415686;23;953;-76
2022/06/28 00:13:20;;;;;;;365.88;274.75;;;;;;;23.33;72.07;99650.84;413766;23;1281;-76
2022/06/28 00:13:31;;;;;;;366.63;271.27;;;;;;;23.35;72.28;99651.53;409720;24;874;-75
2022/06/28 00:13:41;;;;;;;365.58;270.15;;;;;;;23.34;72.06;99641.84;407997;24;1394;-76
2022/06/28 00:13:51;;;;;;;365.70;272.10;;;;;;;23.34;72.38;99646.34;408899;24;1610;-76
2022/06/28 00:14:02;;;;;;;366.75;274.25;;;;;;;23.35;72.07;99648.03;409872;24;866;-76
2022/06/28 00:16:15;;;;;;;358.63;261.77;;;;;;;23.35;72.27;99654.22;411010;24;1062;-75
2022/06/28 00:16:25;;;;;;;360.65;266.02;;;;;;;23.36;72.58;99645.22;409698;24;1246;-76
2022/06/28 00:16:25;;;;;;;357.48;264.85;;;;;;;23.33;72.31;99644.66;417788;23;1046;-75
2022/06/28 00:16:35;;;;;;;362.48;268.23;;;;;;;23.36;72.54;99647.88;413473;23;1058;-76
2022/06/28 00:16:46;;;;;;;360.40;268.27;;;;;;;23.37;72.37;99638.06;411852;23;1319;-76
2022/06/28 00:16:57;;;;;;;360.73;267.93;;;;;;;23.36;72.69;99650.56;411495;24;1082;-76
2022/06/28 00:17:07;;;;;;;361.27;267.97;;;;;;;23.37;72.34;99649.56;413739;23;1108;-76
2022/06/28 00:17:17;;;;;;;362.58;267.73;;;;;;;23.37;72.19;99652.25;411903;24;877;-76
2022/06/28 00:17:28;;;;;;;363.10;266.90;;;;;;;23.34;71.72;99652.53;415658;23;902;-76
2022/06/28 00:17:38;;;;;;;361.67;264.20;;;;;;;23.34;71.79;99649.03;415710;23;929;-76
2022/06/28 00:17:49;;;;;;;362.13;264.40;;;;;;;23.33;71.97;99652.69;411634;24;1340;-76
2022/06/28 00:18:00;;;;;;;364.58;270.85;;;;;;;23.35;71.99;99653.38;409507;24;1214;-76
2022/06/28 00:18:10;;;;;;;368.75;273.20;;;;;;;23.34;71.60;99647.19;409998;24;803;-76
2022/06/28 00:18:21;;;;;;;371.73;272.03;;;;;;;23.34;72.09;99655.19;413770;23;1032;-76
2022/06/28 00:18:38;;;;;;;371.20;268.25;;;;;;;23.35;72.23;99654.22;415594;23;815;-76
2022/06/28 00:18:51;;;;;;;366.90;268.92;;;;;;;23.36;72.16;99649.72;413654;23;904;-75
2022/06/28 00:19:01;;;;;;;364.98;270.38;;;;;;;23.35;72.38;99643.53;413691;23;1400;-75
2022/06/28 00:19:11;;;;;;;363.90;269.63;;;;;;;23.35;72.10;99650.72;413849;23;833;-75
2022/06/28 00:19:22;;;;;;;366.93;270.63;;;;;;;23.35;72.30;99656.88;411915;24;871;-75
2022/06/28 00:19:32;;;;;;;367.27;270.00;;;;;;;23.36;72.43;99655.91;411596;24;1218;-75
2022/06/28 00:19:43;;;;;;;368.07;270.23;;;;;;;23.33;71.78;99648.19;409820;24;1016;-75
2022/06/28 00:19:53;;;;;;;366.65;271.90;;;;;;;23.32;71.88;99651.84;408962;24;913;-75
2022/06/28 00:20:04;;;;;;;366.10;272.87;;;;;;;23.34;72.25;99652.53;409722;24;818;-75
2022/06/28 00:20:15;;;;;;;367.75;273.08;;;;;;;23.33;72.26;99650.84;411737;24;1140;-75
2022/06/28 00:20:25;;;;;;;369.45;273.58;;;;;;;23.34;72.27;99649.88;411999;24;885;-75
2022/06/28 00:20:36;;;;;;;369.83;273.80;;;;;;;23.31;71.84;99652.81;411615;24;1193;-75
2022/06/28 00:20:46;;;;;;;367.80;274.70;;;;;;;23.32;72.31;99649.16;409212;24;1215;-75
2022/06/28 00:20:57;;;;;;;362.93;270.10;;;;;;;23.28;72.17;99653.09;411275;24;1084;-75
2022/06/28 00:21:07;;;;;;;366.25;268.17;;;;;;;23.28;72.51;99652.25;411759;24;854;-76
2022/06/28 00:21:18;;;;;;;367.53;265.83;;;;;;;23.27;72.27;99651.41;411812;24;850;-76
2022/06/28 00:21:29;;;;;;;368.25;266.60;;;;;;;23.28;72.69;99657.59;411838;24;1364;-76
2022/06/28 00:21:39;;;;;;;361.33;264.15;;;;;;;23.27;72.81;99651.41;411821;24;818;-76
2022/06/28 00:21:50;;;;;;;360.13;263.03;;;;;;;23.26;73.12;99649.72;409009;24;858;-76
2022/06/28 00:22:00;;;;;;;361.33;265.00;;;;;;;23.27;73.11;99654.09;409821;24;838;-76
2022/06/28 00:22:11;;;;;;;362.30;264.75;;;;;;;23.27;72.49;99651.41;410951;24;1230;-76
2022/06/28 00:22:21;;;;;;;363.63;265.73;;;;;;;23.26;72.19;99644.38;413525;23;1361;-76
2022/06/28 00:22:32;;;;;;;364.98;269.50;;;;;;;23.29;72.76;99649.44;413680;23;1211;-76
2022/06/28 00:22:42;;;;;;;367.00;272.27;;;;;;;23.28;72.62;99642.41;411862;24;1073;-76
2022/06/28 00:22:52;;;;;;;367.98;272.33;;;;;;;23.28;72.22;99647.75;411824;24;813;-76
2022/06/28 00:23:03;;;;;;;366.63;269.10;;;;;;;23.29;72.11;99652.13;415792;23;1534;-76
2022/06/28 00:23:13;;;;;;;365.90;269.95;;;;;;;23.29;71.89;99652.13;411807;24;806;-76
2022/06/28 00:23:24;;;;;;;365.87;273.07;;;;;;;23.28;71.95;99645.09;417541;23;1314;-76
2022/06/28 00:23:35;;;;;;;367.23;275.50;;;;;;;23.29;71.82;99649.44;413690;23;1414;-76
2022/06/28 00:23:48;;;;;;;366.40;274.58;;;;;;;23.29;72.12;99649.44;415028;23;1301;-75
2022/06/28 00:23:58;;;;;;;363.73;272.98;;;;;;;23.29;71.98;99648.59;413190;23;1277;-76
2022/06/28 00:24:09;;;;;;;364.40;273.00;;;;;;;23.26;72.25;99652.41;411895;24;862;-76
2022/06/28 00:24:20;;;;;;;364.15;269.55;;;;;;;23.26;71.84;99647.06;413729;23;1164;-76
2022/06/28 00:24:30;;;;;;;365.40;268.73;;;;;;;23.27;72.02;99646.06;413776;23;853;-76
2022/06/28 00:24:40;;;;;;;364.45;269.05;;;;;;;23.25;71.87;99640.03;413793;23;834;-76
2022/06/28 00:24:51;;;;;;;365.40;270.90;;;;;;;23.26;71.71;99644.38;415519;23;871;-76
2022/06/28 00:25:01;;;;;;;364.35;272.25;;;;;;;23.25;71.83;99641.84;411740;24;869;-76
2022/06/28 00:25:12;;;;;;;366.97;273.53;;;;;;;23.22;71.27;99642.97;413735;23;843;-76
2022/06/28 00:25:22;;;;;;;367.02;274.58;;;;;;;23.24;71.42;99646.34;415559;23;901;-76
2022/06/28 00:25:33;;;;;;;368.00;270.00;;;;;;;23.22;71.81;99645.66;413794;23;1030;-76
2022/06/28 00:25:43;;;;;;;365.58;267.88;;;;;;;23.25;71.85;99649.88;411902;24;1211;-75
2022/06/28 00:25:53;;;;;;;367.13;269.17;;;;;;;23.25;71.75;99642.69;409287;24;858;-75
2022/06/28 00:26:04;;;;;;;367.73;275.13;;;;;;;23.24;71.60;99646.34;407933;24;1011;-75
2022/06/28 00:26:15;;;;;;;368.58;275.10;;;;;;;23.25;71.94;99647.19;409891;24;1116;-75
2022/06/28 00:26:25;;;;;;;367.53;271.37;;;;;;;23.25;71.73;99644.53;409904;24;1282;-75
2022/06/28 00:26:36;;;;;;;367.70;269.77;;;;;;;23.23;71.92;99644.66;409782;24;1203;-75
2022/06/28 00:26:46;;;;;;;367.55;274.35;;;;;;;23.22;71.76;99643.81;409521;24;930;-75
2022/06/28 00:26:57;;;;;;;365.33;272.00;;;;;;;23.21;71.77;99646.63;411122;24;1355;-76
2022/06/28 00:27:07;;;;;;;365.63;274.20;;;;;;;23.21;71.98;99641.31;415653;23;1345;-76
2022/06/28 00:27:18;;;;;;;367.83;272.70;;;;;;;23.21;72.29;99650.16;415326;23;1189;-75
2022/06/28 00:27:28;;;;;;;371.60;276.42;;;;;;;23.19;71.75;99638.78;415625;23;808;-75
2022/06/28 00:27:39;;;;;;;369.87;275.20;;;;;;;23.21;71.80;99649.31;411608;24;943;-76
2022/06/28 00:27:49;;;;;;;366.20;273.17;;;;;;;23.19;71.38;99636.09;408940;24;1338;-76
2022/06/28 00:27:59;;;;;;;363.17;269.93;;;;;;;23.21;71.19;99646.63;409529;24;1201;-76
2022/06/28 00:28:10;;;;;;;364.48;268.60;;;;;;;23.21;71.19;99646.63;411044;24;1255;-75
2022/06/28 00:28:20;;;;;;;364.23;272.10;;;;;;;23.18;71.15;99637.09;412163;24;1303;-75
2022/06/28 00:28:31;;;;;;;365.40;272.25;;;;;;;23.21;71.08;99646.63;411838;24;1227;-75
2022/06/28 00:28:41;;;;;;;363.80;272.13;;;;;;;23.21;71.10;99641.31;411998;24;1043;-75
2022/06/28 00:28:52;;;;;;;364.77;270.95;;;;;;;23.18;71.29;99646.91;415680;23;1209;-75
2022/06/28 00:29:02;;;;;;;365.07;273.53;;;;;;;23.18;71.12;99646.91;415723;23;1101;-75
2022/06/28 00:29:12;;;;;;;367.05;273.10;;;;;;;23.17;71.23;99640.75;411704;24;1298;-77
2022/06/28 00:29:23;;;;;;;368.17;273.40;;;;;;;23.20;70.90;99642.28;411738;24;1292;-76
2022/06/28 00:29:33;;;;;;;368.67;271.70;;;;;;;23.21;71.38;99646.63;413728;23;1231;-76
2022/06/28 00:29:44;;;;;;;365.23;269.02;;;;;;;23.20;71.07;99642.28;411518;24;886;-76
2022/06/28 00:29:54;;;;;;;363.10;270.60;;;;;;;23.18;71.31;99641.59;411188;24;877;-76
2022/06/28 00:30:05;;;;;;;362.23;269.88;;;;;;;23.21;71.24;99646.63;413510;23;943;-76
2022/06/28 00:30:16;;;;;;;367.45;276.75;;;;;;;23.21;71.00;99641.31;413507;23;1414;-76
2022/06/28 00:30:26;;;;;;;369.80;271.37;;;;;;;23.20;70.70;99647.63;415775;23;881;-76
2022/06/28 00:30:36;;;;;;;370.90;268.10;;;;;;;23.21;70.99;99638.63;411805;23;1314;-77
2022/06/28 00:30:47;;;;;;;367.00;262.07;;;;;;;23.21;71.08;99647.47;413940;23;888;-77
2022/06/28 00:30:57;;;;;;;363.20;264.13;;;;;;;23.21;71.28;99641.31;410104;24;1203;-76
2022/06/28 00:31:07;;;;;;;362.25;268.80;;;;;;;23.18;70.84;99637.09;411933;24;1059;-76
2022/06/28 00:31:18;;;;;;;362.53;271.97;;;;;;;23.20;71.26;99639.63;411797;24;756;-75
2022/06/28 00:31:28;;;;;;;363.67;274.52;;;;;;;23.21;70.92;99643.97;410151;24;1432;-75
2022/06/28 00:31:39;;;;;;;367.97;275.93;;;;;;;23.20;71.12;99647.63;411988;24;790;-75
2022/06/28 00:31:49;;;;;;;368.30;273.27;;;;;;;23.21;71.29;99646.63;411029;24;1056;-75
2022/06/28 00:32:00;;;;;;;366.13;268.77;;;;;;;23.21;70.98;99642.13;411707;24;779;-75
2022/06/28 00:32:10;;;;;;;362.92;268.55;;;;;;;23.20;70.94;99639.63;411743;24;1911;-75
2022/06/28 00:32:20;;;;;;;363.37;268.33;;;;;;;23.18;70.84;99638.91;411777;23;1625;-75
2022/06/28 00:32:32;;;;;;;364.63;270.53;;;;;;;23.20;70.97;99645.78;417652;23;1047;-75
2022/06/28 00:32:42;;;;;;;363.63;269.02;;;;;;;23.21;71.42;99641.31;411648;24;1434;-75
2022/06/28 00:32:53;;;;;;;362.27;269.67;;;;;;;23.19;71.38;99643.25;411806;24;1183;-75
2022/06/28 00:33:03;;;;;;;362.95;270.35;;;;;;;23.16;71.20;99647.06;413071;23;1054;-75
2022/06/28 00:33:14;;;;;;;364.97;273.00;;;;;;;23.16;71.04;99632.88;411675;24;1277;-75
2022/06/28 00:33:24;;;;;;;367.10;275.30;;;;;;;23.17;71.24;99645.25;409793;24;1155;-75
2022/06/28 00:33:35;;;;;;;368.80;276.33;;;;;;;23.16;71.67;99646.22;410230;24;798;-75
2022/06/28 00:33:45;;;;;;;366.58;276.35;;;;;;;23.14;71.22;99637.50;409927;24;1262;-75
2022/06/28 00:33:55;;;;;;;366.77;275.43;;;;;;;23.14;71.27;99640.19;411131;24;1681;-76
2022/06/28 00:34:06;;;;;;;367.30;274.02;;;;;;;23.13;71.20;99638.50;411607;24;1233;-76
2022/06/28 00:34:16;;;;;;;367.17;269.80;;;;;;;23.13;71.17;99646.50;411713;24;1174;-77
2022/06/28 00:34:27;;;;;;;364.53;264.80;;;;;;;23.12;71.30;99637.66;411902;24;874;-76
2022/06/28 00:34:37;;;;;;;362.05;262.27;;;;;;;23.12;71.21;99634.13;411786;23;1211;-76
2022/06/28 00:34:48;;;;;;;362.50;263.57;;;;;;;23.11;71.31;99638.63;411154;24;823;-75
2022/06/28 00:34:59;;;;;;;363.85;268.88;;;;;;;23.11;71.51;99637.78;413114;23;1374;-76
2022/06/28 00:35:09;;;;;;;364.90;267.25;;;;;;;23.10;71.58;99636.09;409755;24;858;-76
2022/06/28 00:35:20;;;;;;;366.55;268.60;;;;;;;23.13;71.64;99638.50;410058;24;836;-77
2022/06/28 00:35:30;;;;;;;365.03;265.03;;;;;;;23.11;72.21;99635.13;409827;24;893;-75
2022/06/28 00:35:41;;;;;;;361.63;266.73;;;;;;;23.10;71.86;99631.59;411877;24;822;-75
2022/06/28 00:35:51;;;;;;;363.03;270.33;;;;;;;23.10;71.63;99638.78;410790;24;1336;-75
2022/06/28 00:36:02;;;;;;;364.30;272.65;;;;;;;23.11;71.47;99641.31;409742;24;1290;-76
2022/06/28 00:36:12;;;;;;;364.80;273.03;;;;;;;23.10;71.43;99633.44;412005;24;1280;-76
2022/06/28 00:36:23;;;;;;;366.05;267.73;;;;;;;23.10;71.77;99638.78;411701;24;1214;-76
2022/06/28 00:36:33;;;;;;;366.73;264.73;;;;;;;23.09;72.32;99635.25;415718;23;1066;-76
2022/06/28 00:36:44;;;;;;;364.63;263.70;;;;;;;23.09;72.51;99631.75;417602;23;1249;-76
2022/06/28 00:36:54;;;;;;;364.13;266.17;;;;;;;23.09;73.09;99632.59;411800;24;1267;-76
2022/06/28 00:37:04;;;;;;;361.55;263.70;;;;;;;23.09;72.76;99637.09;413599;23;1124;-76
2022/06/28 00:37:15;;;;;;;362.50;264.47;;;;;;;23.09;72.41;99631.75;413738;23;1089;-76
2022/06/28 00:37:26;;;;;;;364.10;265.10;;;;;;;23.08;72.11;99635.41;409967;24;800;-76
2022/06/28 00:37:37;;;;;;;368.10;268.33;;;;;;;23.06;72.00;99638.22;411453;24;1384;-76
2022/06/28 00:37:47;;;;;;;366.77;265.38;;;;;;;23.06;72.34;99634.69;413227;23;1248;-78
2022/06/28 00:37:58;;;;;;;364.60;266.93;;;;;;;23.08;71.91;99630.06;411511;24;857;-77
2022/06/28 00:38:08;;;;;;;363.42;267.05;;;;;;;23.07;72.01;99637.22;411997;24;885;-77
2022/06/28 00:38:19;;;;;;;367.17;272.47;;;;;;;23.07;72.02;99636.38;411758;24;855;-77
2022/06/28 00:38:29;;;;;;;366.65;270.75;;;;;;;23.08;71.76;99640.75;413281;23;949;-77
2022/06/28 00:38:40;;;;;;;364.03;266.17;;;;;;;23.08;71.84;99635.41;411815;24;719;-77
2022/06/28 00:38:50;;;;;;;363.03;266.13;;;;;;;23.08;72.31;99646.09;417495;23;1371;-74
2022/06/28 00:39:00;;;;;;;362.77;266.15;;;;;;;23.07;72.20;99631.03;417741;23;920;-76
2022/06/28 00:39:12;;;;;;;363.57;267.33;;;;;;;23.08;72.53;99632.72;415651;23;1225;-76
2022/06/28 00:39:22;;;;;;;363.17;265.58;;;;;;;23.09;72.65;99642.44;413712;23;1063;-76
2022/06/28 00:39:33;;;;;;;366.67;269.50;;;;;;;23.08;72.80;99643.41;411807;24;844;-77
2022/06/28 00:39:43;;;;;;;366.80;267.67;;;;;;;23.10;72.76;99638.78;411627;24;830;-76
2022/06/28 00:39:54;;;;;;;368.27;272.03;;;;;;;23.07;72.97;99639.91;407112;24;1300;-76
2022/06/28 00:40:05;;;;;;;364.38;272.13;;;;;;;23.09;73.11;99637.94;409968;24;778;-77
2022/06/28 00:40:15;;;;;;;367.73;274.23;;;;;;;23.11;73.08;99637.78;411657;24;1334;-75
2022/06/28 00:40:25;;;;;;;367.60;272.37;;;;;;;23.09;72.65;99637.09;409651;24;1195;-75
2022/06/28 00:40:49;;;;;;;371.30;274.77;;;;;;;23.08;72.86;99636.25;413589;23;1339;-75
2022/06/28 00:41:00;;;;;;;365.83;267.95;;;;;;;23.09;72.71;99642.44;413754;23;1001;-76
2022/06/28 00:41:10;;;;;;;364.02;267.60;;;;;;;23.10;72.33;99642.28;409773;24;1283;-76
2022/06/28 00:41:20;;;;;;;364.63;268.63;;;;;;;23.09;72.20;99645.09;411945;24;869;-76
2022/06/28 00:41:31;;;;;;;364.42;269.08;;;;;;;23.08;72.46;99638.06;411928;24;1305;-76
2022/06/28 00:41:41;;;;;;;365.47;270.93;;;;;;;23.05;72.60;99635.69;409881;24;861;-76
2022/06/28 00:41:52;;;;;;;363.73;271.65;;;;;;;23.07;72.79;99639.06;410830;24;787;-76
2022/06/28 00:42:02;;;;;;;364.27;274.30;;;;;;;23.06;72.75;99645.38;411762;24;973;-76
2022/06/28 00:42:13;;;;;;;365.13;275.33;;;;;;;23.08;72.90;99641.59;413900;23;741;-76
2022/06/28 00:42:23;;;;;;;367.33;276.80;;;;;;;23.09;73.30;99645.94;411687;24;864;-76
2022/06/28 00:42:34;;;;;;;366.50;274.98;;;;;;;23.09;73.13;99639.75;409807;24;897;-76
2022/06/28 00:42:44;;;;;;;364.23;269.53;;;;;;;23.08;73.17;99640.75;411796;24;1573;-76
2022/06/28 00:42:54;;;;;;;363.60;270.30;;;;;;;23.09;72.89;99643.28;411781;24;918;-76
2022/06/28 00:43:05;;;;;;;364.37;273.63;;;;;;;23.08;73.33;99643.41;411765;24;854;-76
2022/06/28 00:43:16;;;;;;;367.27;279.57;;;;;;;23.07;73.07;99641.72;407842;24;1258;-76
2022/06/28 00:43:26;;;;;;;365.77;276.77;;;;;;;23.06;72.55;99638.22;409887;24;787;-76
2022/06/28 00:43:37;;;;;;;366.15;274.55;;;;;;;23.03;71.94;99638.50;411644;24;1222;-76
2022/06/28 00:43:47;;;;;;;365.97;271.60;;;;;;;23.00;72.20;99640.59;412934;23;1179;-76
2022/06/28 00:43:58;;;;;;;368.08;276.85;;;;;;;23.01;72.39;99650.28;411179;24;1351;-77
2022/06/28 00:44:10;;;;;;;367.47;275.97;;;;;;;23.00;72.30;99637.94;413934;23;987;-77
2022/06/28 00:44:20;;;;;;;365.77;273.85;;;;;;;23.00;72.63;99638.78;413323;23;1309;-77
2022/06/28 00:44:31;;;;;;;365.30;273.43;;;;;;;22.99;72.71;99641.59;419562;23;1278;-77
2022/06/28 00:44:41;;;;;;;366.43;273.87;;;;;;;23.00;72.10;99637.94;417762;23;834;-77
2022/06/28 00:44:52;;;;;;;367.42;276.85;;;;;;;23.00;72.35;99638.78;413728;23;1448;-77
2022/06/28 00:45:02;;;;;;;366.53;270.50;;;;;;;22.99;71.94;99641.59;413655;23;1201;-77
2022/06/28 00:45:13;;;;;;;366.17;268.40;;;;;;;22.98;71.97;99645.25;411782;24;1249;-77
2022/06/28 00:45:23;;;;;;;362.98;265.98;;;;;;;22.97;72.62;99639.06;415731;23;861;-77
2022/06/28 00:45:34;;;;;;;361.13;269.93;;;;;;;22.97;73.35;99640.88;415627;23;1194;-75
2022/06/28 00:45:44;;;;;;;360.60;271.08;;;;;;;22.98;73.83;99645.25;413460;23;1304;-75
2022/06/28 00:45:55;;;;;;;364.90;276.37;;;;;;;22.99;74.56;99646.91;412733;23;1003;-75
2022/06/28 00:46:07;;;;;;;365.55;272.38;;;;;;;22.97;74.60;99643.56;411628;24;1330;-75
2022/06/28 00:46:17;;;;;;;365.52;270.55;;;;;;;22.97;74.17;99639.06;413375;23;1351;-76
2022/06/28 00:46:29;;;;;;;363.03;269.10;;;;;;;22.98;74.12;99640.75;413726;23;896;-76
2022/06/28 00:46:39;;;;;;;364.17;272.38;;;;;;;22.96;74.12;99648.03;415727;23;854;-77
2022/06/28 00:46:50;;;;;;;364.20;270.30;;;;;;;22.96;74.13;99644.56;413693;23;925;-75
2022/06/28 00:47:00;;;;;;;365.17;269.27;;;;;;;22.92;73.67;99643.16;413750;23;1147;-75
2022/06/28 00:47:11;;;;;;;363.83;267.60;;;;;;;22.93;73.62;99647.50;411912;23;1289;-76
2022/06/28 00:47:21;;;;;;;364.30;270.23;;;;;;;22.92;74.13;99651.16;411750;24;966;-77
2022/06/28 00:47:32;;;;;;;364.23;270.73;;;;;;;22.93;73.97;99647.50;411821;24;767;-77
2022/06/28 00:47:42;;;;;;;364.73;272.70;;;;;;;22.93;73.76;99637.69;413739;23;830;-76
2022/06/28 00:47:52;;;;;;;365.10;274.80;;;;;;;22.93;74.05;99647.50;412948;23;1152;-76
2022/06/28 00:48:03;;;;;;;365.00;274.35;;;;;;;22.94;74.09;99643.88;415641;23;814;-76
2022/06/28 00:48:14;;;;;;;367.80;272.57;;;;;;;22.94;73.78;99654.53;415491;23;1280;-76
2022/06/28 00:48:26;;;;;;;365.75;269.10;;;;;;;22.94;73.78;99651.88;411701;24;1278;-77
2022/06/28 00:48:36;;;;;;;365.05;269.55;;;;;;;22.92;73.52;99646.66;417715;23;885;-77
2022/06/28 00:48:47;;;;;;;365.27;272.60;;;;;;;22.92;73.54;99645.81;414003;23;766;-77
2022/06/28 00:48:57;;;;;;;366.27;274.63;;;;;;;22.91;73.38;99644.13;415583;23;1030;-77
2022/06/28 00:49:09;;;;;;;367.57;277.60;;;;;;;22.93;74.15;99652.84;411948;24;833;-77
2022/06/28 00:49:20;;;;;;;366.88;278.08;;;;;;;22.92;74.03;99645.81;411805;24;1404;-77
2022/06/28 00:49:30;;;;;;;366.95;276.90;;;;;;;22.90;74.55;99643.31;413942;23;1119;-77
2022/06/28 00:49:41;;;;;;;366.45;271.20;;;;;;;22.91;74.46;99641.47;411807;24;1202;-77
2022/06/28 00:49:52;;;;;;;369.40;271.20;;;;;;;22.93;75.09;99650.19;410895;24;854;-76
2022/06/28 00:50:03;;;;;;;370.23;270.47;;;;;;;22.93;74.55;99648.34;411429;24;1317;-77
2022/06/28 00:50:13;;;;;;;371.75;275.52;;;;;;;22.93;74.26;99642.19;411727;23;858;-76
2022/06/28 00:50:24;;;;;;;369.57;273.83;;;;;;;22.92;73.84;99645.81;411686;24;1348;-76
2022/06/28 00:50:34;;;;;;;369.73;275.52;;;;;;;22.91;73.91;99649.47;413654;23;1374;-76
2022/06/28 00:50:45;;;;;;;364.75;271.45;;;;;;;22.91;74.83;99654.81;413578;23;850;-76
2022/06/28 00:50:56;;;;;;;365.95;271.63;;;;;;;22.90;75.06;99643.31;409969;24;1048;-77